Time;durP1;ratioP1;P1;durP2;ratioP2;P2;SDS_P1;SDS_P2;PMS_P1;PMS_P2;Temp;Humidity;BMP_temperature;BMP_pressure;BME280_temperature;BME280_humidity;BME280_pressure;Samples;Min_cycle;Max_cycle;Signal;HPM_P1;HPM_P2
2022/09/10 00:01:21;;;;;;;3.28;1.58;;;15.30;99.90;;;;;;4956703;28;20031;-81
2022/09/10 00:03:48;;;;;;;3.65;1.80;;;15.40;99.90;;;;;;4949691;28;20450;-81
2022/09/10 00:06:14;;;;;;;4.68;1.00;;;15.40;99.90;;;;;;4939859;28;20092;-80
2022/09/10 00:08:40;;;;;;;3.42;1.10;;;15.40;99.90;;;;;;4969948;28;20129;-79
2022/09/10 00:11:08;;;;;;;3.58;1.10;;;15.40;99.90;;;;;;4952254;28;20527;-80
2022/09/10 00:13:34;;;;;;;4.47;1.10;;;15.30;99.90;;;;;;4941230;28;20042;-80
2022/09/10 00:16:01;;;;;;;2.15;1.10;;;15.40;99.90;;;;;;4952610;28;20038;-80
2022/09/10 00:18:28;;;;;;;5.38;1.20;;;15.40;99.90;;;;;;4953763;28;20130;-80
2022/09/10 00:20:54;;;;;;;1.00;0.90;;;15.50;99.90;;;;;;4953636;28;20491;-80
2022/09/10 00:23:24;;;;;;;3.45;1.15;;;15.50;99.90;;;;;;4950746;28;20435;-79
2022/09/10 00:25:52;;;;;;;4.70;1.20;;;15.50;99.90;;;;;;4953726;28;20137;-80
2022/09/10 00:28:18;;;;;;;2.78;1.05;;;15.60;99.90;;;;;;4951815;28;20031;-80
2022/09/10 00:30:45;;;;;;;3.47;1.08;;;15.50;99.90;;;;;;4947554;28;20072;-80
2022/09/10 00:33:11;;;;;;;5.15;1.45;;;15.50;99.90;;;;;;4953035;28;20495;-81
2022/09/10 00:35:37;;;;;;;8.15;1.83;;;15.60;99.90;;;;;;4957311;28;20042;-79
2022/09/10 00:38:02;;;;;;;7.07;1.40;;;15.50;99.90;;;;;;4949310;28;20541;-80
2022/09/10 00:40:28;;;;;;;3.05;0.95;;;15.50;99.90;;;;;;4954386;28;20044;-80
2022/09/10 00:42:54;;;;;;;1.52;1.02;;;15.60;99.90;;;;;;4935194;28;20482;-80
2022/09/10 00:45:27;;;;;;;3.65;1.00;;;15.60;99.90;;;;;;4955387;28;20034;-80
2022/09/10 00:47:55;;;;;;;3.67;0.90;;;15.60;99.90;;;;;;4938606;28;20039;-80
2022/09/10 00:50:22;;;;;;;4.95;1.05;;;15.60;99.90;;;;;;4929870;28;20046;-81
2022/09/10 00:52:48;;;;;;;4.18;1.00;;;15.60;99.90;;;;;;4952283;28;20447;-80
2022/09/10 00:55:14;;;;;;;2.40;0.75;;;15.60;99.90;;;;;;4950003;28;20045;-80
2022/09/10 00:57:40;;;;;;;3.75;1.02;;;15.60;99.90;;;;;;4955716;28;20027;-80
2022/09/10 01:00:09;;;;;;;3.17;1.05;;;15.60;99.90;;;;;;4949101;28;20380;-80
2022/09/10 01:02:34;;;;;;;3.28;0.80;;;15.60;99.90;;;;;;4971922;28;20478;-80
2022/09/10 01:05:00;;;;;;;1.52;0.50;;;15.60;99.90;;;;;;4948597;28;20034;-82
2022/09/10 01:07:27;;;;;;;0.98;0.70;;;15.50;99.90;;;;;;4936177;28;20037;-80
2022/09/10 01:09:55;;;;;;;0.95;0.63;;;15.60;99.90;;;;;;4949228;28;20030;-80
2022/09/10 01:12:39;;;;;;;2.85;0.80;;;15.60;99.90;;;;;;4938609;28;20065;-80
2022/09/10 01:15:39;;;;;;;0.88;0.75;;;15.60;99.90;;;;;;4952168;28;20039;-80
2022/09/10 01:18:33;;;;;;;1.83;0.80;;;15.50;99.90;;;;;;4968798;28;20101;-80
2022/09/10 01:21:20;;;;;;;3.15;0.90;;;15.60;99.90;;;;;;4962101;28;20125;-80
2022/09/10 01:23:51;;;;;;;1.67;0.60;;;15.50;99.90;;;;;;4976720;28;20027;-80
2022/09/10 01:26:49;;;;;;;1.55;0.70;;;15.60;99.90;;;;;;4971946;28;20034;-80
2022/09/10 01:29:44;;;;;;;1.98;0.80;;;15.60;99.90;;;;;;4949177;28;20493;-81
2022/09/10 01:32:14;;;;;;;1.85;0.80;;;15.50;99.90;;;;;;4953992;28;20026;-80
2022/09/10 01:34:51;;;;;;;2.63;0.60;;;15.50;99.90;;;;;;4957917;28;20058;-80
2022/09/10 01:37:30;;;;;;;5.13;0.90;;;15.50;99.90;;;;;;4950513;28;20081;-80
2022/09/10 01:39:56;;;;;;;2.80;0.70;;;15.50;99.90;;;;;;4952319;28;20088;-79
2022/09/10 01:42:26;;;;;;;2.08;0.75;;;15.40;99.90;;;;;;4965924;28;20077;-81
2022/09/10 01:44:52;;;;;;;2.53;0.82;;;15.40;99.90;;;;;;4951130;28;20434;-81
2022/09/10 01:47:26;;;;;;;1.88;0.70;;;15.40;99.90;;;;;;4968311;28;20116;-80
2022/09/10 01:50:10;;;;;;;4.38;0.73;;;15.30;99.90;;;;;;4964693;28;20050;-80
2022/09/10 01:52:57;;;;;;;3.90;0.90;;;15.20;99.90;;;;;;4977513;28;20097;-80
2022/09/10 01:55:51;;;;;;;3.08;1.10;;;15.30;99.90;;;;;;4974306;28;20035;-80
2022/09/10 01:58:33;;;;;;;3.92;1.10;;;15.20;99.90;;;;;;4966922;28;20503;-80
2022/09/10 02:01:20;;;;;;;2.45;1.13;;;15.20;99.90;;;;;;4943840;28;20022;-80
2022/09/10 02:03:47;;;;;;;3.33;0.95;;;15.20;99.90;;;;;;4955839;28;20121;-80
2022/09/10 02:06:15;;;;;;;8.85;1.27;;;15.20;99.90;;;;;;4946956;28;20434;-80
2022/09/10 02:08:42;;;;;;;5.43;0.95;;;15.10;99.90;;;;;;4953401;28;20037;-80
2022/09/10 02:11:10;;;;;;;2.70;0.85;;;15.20;99.90;;;;;;4955366;28;20113;-80
2022/09/10 02:13:36;;;;;;;2.35;1.05;;;15.20;99.90;;;;;;4953513;28;20026;-80
2022/09/10 02:16:02;;;;;;;5.70;1.00;;;15.20;99.90;;;;;;4958178;28;20046;-80
2022/09/10 02:18:28;;;;;;;3.58;0.90;;;15.30;99.90;;;;;;4954811;28;20042;-81
2022/09/10 02:20:54;;;;;;;4.78;1.20;;;15.30;99.90;;;;;;4934026;28;20517;-80
2022/09/10 02:23:23;;;;;;;5.95;1.60;;;15.30;99.90;;;;;;4953619;28;20499;-80
2022/09/10 02:25:49;;;;;;;2.00;0.65;;;15.30;99.90;;;;;;4950943;28;20101;-80
2022/09/10 02:28:15;;;;;;;4.93;1.00;;;15.30;99.90;;;;;;4936231;28;20069;-80
2022/09/10 02:30:40;;;;;;;2.58;0.85;;;15.30;99.90;;;;;;4935687;28;20030;-80
2022/09/10 02:33:06;;;;;;;2.60;0.73;;;15.30;99.90;;;;;;4954104;28;20034;-80
2022/09/10 02:35:31;;;;;;;1.52;0.80;;;15.40;99.90;;;;;;4968348;28;20468;-80
2022/09/10 02:37:57;;;;;;;2.92;1.00;;;15.40;99.90;;;;;;4951015;28;20027;-80
2022/09/10 02:40:23;;;;;;;3.83;1.08;;;15.40;99.90;;;;;;4954447;28;20525;-84
2022/09/10 02:42:48;;;;;;;3.35;1.27;;;15.30;99.90;;;;;;4947704;28;20026;-84
2022/09/10 02:45:14;;;;;;;3.55;0.90;;;15.40;99.90;;;;;;4966289;28;20089;-83
2022/09/10 02:47:40;;;;;;;2.42;0.98;;;15.40;99.90;;;;;;4952238;28;20050;-84
2022/09/10 02:50:07;;;;;;;2.33;0.90;;;15.40;99.90;;;;;;4950240;28;20030;-84
2022/09/10 02:52:32;;;;;;;5.25;1.33;;;15.40;99.90;;;;;;4956099;28;20148;-84
2022/09/10 02:54:58;;;;;;;1.55;1.00;;;15.40;99.90;;;;;;4935650;28;20109;-84
2022/09/10 02:57:24;;;;;;;1.58;0.85;;;15.40;99.90;;;;;;4954975;28;20050;-84
2022/09/10 02:59:50;;;;;;;2.85;1.00;;;15.40;99.90;;;;;;4935077;28;20073;-83
2022/09/10 03:02:16;;;;;;;1.80;1.17;;;15.40;99.90;;;;;;4950370;28;20556;-83
2022/09/10 03:04:41;;;;;;;8.73;1.90;;;15.40;99.90;;;;;;4963229;28;20038;-83
2022/09/10 03:07:07;;;;;;;5.22;1.30;;;15.40;99.90;;;;;;4934544;28;20499;-83
2022/09/10 03:09:34;;;;;;;4.22;1.42;;;15.40;99.90;;;;;;4950913;28;20065;-84
2022/09/10 03:12:00;;;;;;;1.80;1.15;;;15.40;99.90;;;;;;4949491;28;20161;-83
2022/09/10 03:14:27;;;;;;;2.53;1.50;;;15.40;99.90;;;;;;4959704;28;20122;-83
2022/09/10 03:16:52;;;;;;;3.50;0.85;;;15.40;99.90;;;;;;4944672;28;20038;-83
2022/09/10 03:19:18;;;;;;;4.78;1.60;;;15.40;99.90;;;;;;4944367;28;20038;-83
2022/09/10 03:21:46;;;;;;;5.88;1.83;;;15.40;99.90;;;;;;4952701;28;20108;-83
2022/09/10 03:24:12;;;;;;;6.25;1.30;;;15.40;99.90;;;;;;4950960;28;20483;-82
2022/09/10 03:26:37;;;;;;;2.80;1.05;;;15.40;99.90;;;;;;4956611;28;20033;-83
2022/09/10 03:29:03;;;;;;;4.65;2.03;;;15.40;99.90;;;;;;4963700;28;20027;-83
2022/09/10 03:31:35;;;;;;;5.25;1.48;;;15.40;99.90;;;;;;4951793;28;20035;-83
2022/09/10 03:34:01;;;;;;;10.23;1.45;;;15.40;99.90;;;;;;4940439;28;20026;-81
2022/09/10 03:36:30;;;;;;;2.40;1.60;;;15.30;99.90;;;;;;4956995;28;20050;-82
2022/09/10 03:38:56;;;;;;;3.88;1.40;;;15.20;99.90;;;;;;4955029;28;20409;-82
2022/09/10 03:41:22;;;;;;;6.82;2.08;;;15.10;99.90;;;;;;4942160;28;20039;-82
2022/09/10 03:43:48;;;;;;;5.32;2.45;;;15.10;99.90;;;;;;4938854;28;20045;-82
2022/09/10 03:46:14;;;;;;;3.50;1.70;;;15.10;99.90;;;;;;4940363;28;20150;-82
2022/09/10 03:48:42;;;;;;;3.70;2.03;;;15.10;99.90;;;;;;4968799;28;20026;-83
2022/09/10 03:51:09;;;;;;;3.50;2.35;;;15.10;99.90;;;;;;4955269;28;20034;-82
2022/09/10 03:53:35;;;;;;;7.90;1.58;;;15.10;99.90;;;;;;4948670;28;20026;-83
2022/09/10 03:56:00;;;;;;;3.78;1.67;;;15.10;99.90;;;;;;4952949;28;20121;-83
2022/09/10 03:58:26;;;;;;;4.32;2.20;;;15.20;99.90;;;;;;4954816;28;20037;-83
2022/09/10 04:00:52;;;;;;;4.47;1.92;;;15.20;99.90;;;;;;4954535;28;20031;-83
2022/09/10 04:03:19;;;;;;;5.45;2.58;;;15.20;99.90;;;;;;4952709;28;20026;-83
2022/09/10 04:05:44;;;;;;;4.65;1.90;;;15.10;99.90;;;;;;4939188;28;20027;-84
2022/09/10 04:08:10;;;;;;;8.20;3.45;;;15.10;99.90;;;;;;4951636;28;20501;-84
2022/09/10 04:10:37;;;;;;;5.07;3.00;;;15.10;99.90;;;;;;4954311;28;20493;-84
2022/09/10 04:13:03;;;;;;;3.05;2.10;;;15.10;99.90;;;;;;4960902;28;20077;-83
2022/09/10 04:15:28;;;;;;;6.95;3.45;;;15.10;99.90;;;;;;4953039;28;20118;-84
2022/09/10 04:17:54;;;;;;;4.55;2.35;;;15.10;99.90;;;;;;4965171;28;20404;-83
2022/09/10 04:20:22;;;;;;;3.63;2.00;;;15.00;99.90;;;;;;4959747;28;20074;-83
2022/09/10 04:22:48;;;;;;;3.85;2.20;;;15.00;99.90;;;;;;4968660;28;20471;-83
2022/09/10 04:25:14;;;;;;;6.32;3.17;;;15.10;99.90;;;;;;4940990;28;20034;-84
2022/09/10 04:27:43;;;;;;;7.18;3.67;;;15.10;99.90;;;;;;4936969;28;20470;-84
2022/09/10 04:30:09;;;;;;;6.55;3.30;;;15.00;99.90;;;;;;4935840;28;20027;-84
2022/09/10 04:32:35;;;;;;;8.35;3.70;;;15.00;99.90;;;;;;4939779;28;20050;-84
2022/09/10 04:35:03;;;;;;;3.40;3.00;;;15.00;99.90;;;;;;4952633;28;20069;-84
2022/09/10 04:37:30;;;;;;;9.40;4.32;;;15.00;99.90;;;;;;4968531;28;20122;-83
2022/09/10 04:39:56;;;;;;;10.65;4.57;;;15.00;99.90;;;;;;4936657;28;20522;-84
2022/09/10 04:42:21;;;;;;;10.18;5.13;;;15.00;99.90;;;;;;4936176;28;20042;-84
2022/09/10 04:44:48;;;;;;;6.05;4.45;;;15.00;99.90;;;;;;4967121;28;20514;-84
2022/09/10 04:47:13;;;;;;;8.98;4.28;;;15.00;99.90;;;;;;4961324;28;20086;-83
2022/09/10 04:49:39;;;;;;;5.20;2.70;;;15.00;99.90;;;;;;4966181;28;20031;-83
2022/09/10 04:52:04;;;;;;;6.80;2.55;;;15.00;99.90;;;;;;4931692;28;20093;-81
2022/09/10 04:54:32;;;;;;;7.07;2.88;;;15.00;99.90;;;;;;4946371;28;20034;-81
2022/09/10 04:56:59;;;;;;;4.10;3.00;;;15.10;99.90;;;;;;4948111;28;20470;-81
2022/09/10 04:59:26;;;;;;;5.32;2.22;;;15.10;99.90;;;;;;4949447;28;20443;-82
2022/09/10 05:01:53;;;;;;;7.07;3.13;;;15.10;99.90;;;;;;4928829;28;20039;-82
2022/09/10 05:04:19;;;;;;;6.22;2.03;;;15.00;99.90;;;;;;4954047;28;20036;-81
2022/09/10 05:06:46;;;;;;;12.25;4.03;;;15.00;99.90;;;;;;4969621;28;20106;-81
2022/09/10 05:09:12;;;;;;;3.15;2.28;;;15.00;99.90;;;;;;4952012;28;20031;-82
2022/09/10 05:11:37;;;;;;;4.15;2.80;;;14.80;99.90;;;;;;4966769;28;20065;-83
2022/09/10 05:14:03;;;;;;;7.68;3.25;;;14.80;99.90;;;;;;4951477;28;20110;-84
2022/09/10 05:16:28;;;;;;;4.45;3.10;;;14.90;99.90;;;;;;4951457;28;20042;-84
2022/09/10 05:18:55;;;;;;;5.88;2.85;;;14.80;99.90;;;;;;4936561;28;20435;-83
2022/09/10 05:21:21;;;;;;;9.05;4.05;;;14.90;99.90;;;;;;4935789;28;20117;-84
2022/09/10 05:23:46;;;;;;;5.75;2.95;;;14.90;99.90;;;;;;4949338;28;20402;-84
2022/09/10 05:26:12;;;;;;;6.78;2.97;;;14.90;99.90;;;;;;4952437;28;20038;-84
2022/09/10 05:28:38;;;;;;;6.53;3.40;;;14.90;99.90;;;;;;4952577;28;20473;-84
2022/09/10 05:31:09;;;;;;;4.90;2.58;;;14.90;99.90;;;;;;4949692;28;20505;-85
2022/09/10 05:33:35;;;;;;;4.45;2.75;;;15.00;99.90;;;;;;4935454;28;20031;-84
2022/09/10 05:36:01;;;;;;;9.63;3.20;;;14.90;99.90;;;;;;4936982;28;20034;-84
2022/09/10 05:38:27;;;;;;;10.35;2.35;;;14.90;99.90;;;;;;4954199;28;20043;-84
2022/09/10 05:40:52;;;;;;;8.55;2.78;;;15.00;99.90;;;;;;4937508;28;20044;-83
2022/09/10 05:43:19;;;;;;;4.35;2.58;;;15.00;99.90;;;;;;4947937;28;20394;-83
2022/09/10 05:45:45;;;;;;;3.50;2.42;;;15.10;99.90;;;;;;4948584;28;20502;-83
2022/09/10 05:48:12;;;;;;;7.47;3.42;;;15.10;99.90;;;;;;4942731;28;20114;-83
2022/09/10 05:50:37;;;;;;;5.50;3.13;;;15.10;99.90;;;;;;4951491;28;20061;-83
2022/09/10 05:53:03;;;;;;;3.97;2.58;;;15.00;99.90;;;;;;4949520;28;20536;-83
2022/09/10 05:55:30;;;;;;;4.30;3.65;;;15.00;99.90;;;;;;4936551;28;20031;-84
2022/09/10 05:57:57;;;;;;;5.57;3.70;;;15.00;99.90;;;;;;4955430;28;20046;-83
2022/09/10 06:00:24;;;;;;;6.28;3.00;;;15.00;99.90;;;;;;4963986;28;20045;-83
2022/09/10 06:02:49;;;;;;;4.53;2.83;;;14.90;99.90;;;;;;4952193;28;20030;-84
2022/09/10 06:05:15;;;;;;;5.10;2.70;;;15.00;99.90;;;;;;4949031;28;20027;-84
2022/09/10 06:07:41;;;;;;;5.25;2.70;;;15.00;99.90;;;;;;4935298;28;20033;-84
2022/09/10 06:10:07;;;;;;;5.75;3.03;;;15.00;99.90;;;;;;4944085;28;20114;-84
2022/09/10 06:12:33;;;;;;;6.13;2.83;;;15.00;99.90;;;;;;4966855;28;20137;-83
2022/09/10 06:14:58;;;;;;;4.63;3.05;;;15.00;99.90;;;;;;4951523;28;20105;-84
2022/09/10 06:17:30;;;;;;;4.50;2.40;;;15.00;99.90;;;;;;4953809;28;20058;-82
2022/09/10 06:19:56;;;;;;;5.00;2.88;;;15.00;99.90;;;;;;4946794;28;20038;-82
2022/09/10 06:22:22;;;;;;;5.78;3.17;;;15.10;99.90;;;;;;4936527;28;20379;-81
2022/09/10 06:24:48;;;;;;;11.15;3.00;;;15.10;99.90;;;;;;4936487;28;20034;-83
2022/09/10 06:27:13;;;;;;;6.80;2.60;;;15.10;99.90;;;;;;4951565;28;20027;-83
2022/09/10 06:29:39;;;;;;;8.38;4.10;;;15.10;99.90;;;;;;4937303;28;20448;-83
2022/09/10 06:32:05;;;;;;;6.97;3.58;;;15.10;99.90;;;;;;4937057;28;20027;-84
2022/09/10 06:34:30;;;;;;;3.67;2.72;;;15.10;99.90;;;;;;4937774;28;20042;-84
2022/09/10 06:36:57;;;;;;;7.10;4.32;;;15.10;99.90;;;;;;4950501;28;20078;-84
2022/09/10 06:39:22;;;;;;;6.90;3.22;;;15.10;99.90;;;;;;4951179;28;20121;-84
2022/09/10 06:41:48;;;;;;;6.55;3.03;;;15.10;99.90;;;;;;4935860;28;20117;-83
2022/09/10 06:44:13;;;;;;;5.22;2.67;;;15.10;99.90;;;;;;4948233;28;20466;-84
2022/09/10 06:46:41;;;;;;;5.38;2.55;;;15.20;99.90;;;;;;4966397;28;20050;-84
2022/09/10 06:49:10;;;;;;;4.65;2.88;;;15.10;99.90;;;;;;4944138;28;20494;-84
2022/09/10 06:51:35;;;;;;;6.47;2.42;;;15.20;99.90;;;;;;4947174;28;20092;-83
2022/09/10 06:54:01;;;;;;;4.43;2.38;;;15.20;99.90;;;;;;4938052;28;20034;-83
2022/09/10 06:56:27;;;;;;;8.02;3.40;;;15.20;99.90;;;;;;4934981;28;20042;-84
2022/09/10 06:58:53;;;;;;;5.22;2.13;;;15.10;99.90;;;;;;4933669;28;20066;-84
2022/09/10 07:01:21;;;;;;;12.15;3.08;;;15.20;99.90;;;;;;4949061;28;20080;-84
2022/09/10 07:03:47;;;;;;;5.82;3.42;;;15.30;99.90;;;;;;4933356;28;20030;-83
2022/09/10 07:06:16;;;;;;;6.78;2.88;;;15.30;99.90;;;;;;4949845;28;20034;-84
2022/09/10 07:08:42;;;;;;;9.15;4.43;;;15.30;99.90;;;;;;4934984;28;20031;-84
2022/09/10 07:11:12;;;;;;;9.25;3.78;;;15.40;99.90;;;;;;4947194;28;20105;-84
2022/09/10 07:13:38;;;;;;;8.20;4.57;;;15.50;99.90;;;;;;4950678;28;20129;-84
2022/09/10 07:16:04;;;;;;;4.03;2.67;;;15.60;99.90;;;;;;4948313;28;20457;-84
2022/09/10 07:18:30;;;;;;;6.03;3.10;;;15.60;99.90;;;;;;4942731;28;20126;-83
2022/09/10 07:21:22;;;;;;;5.10;2.78;;;15.80;99.90;;;;;;4949969;28;20046;-84
2022/09/10 07:23:48;;;;;;;5.68;2.50;;;15.80;99.90;;;;;;4945784;28;20035;-84
2022/09/10 07:26:15;;;;;;;4.70;2.30;;;15.90;99.90;;;;;;4962273;28;20043;-84
2022/09/10 07:28:41;;;;;;;6.43;3.30;;;16.00;99.90;;;;;;4932962;28;20046;-84
2022/09/10 07:31:15;;;;;;;6.47;2.80;;;16.00;99.90;;;;;;4931195;28;20502;-84
2022/09/10 07:33:42;;;;;;;7.53;4.00;;;16.00;99.90;;;;;;4935807;28;20034;-83
2022/09/10 07:36:08;;;;;;;4.07;2.53;;;16.00;99.90;;;;;;4944287;28;20058;-83
2022/09/10 07:38:35;;;;;;;6.78;3.72;;;16.10;99.90;;;;;;4938379;28;20031;-84
2022/09/10 07:41:01;;;;;;;10.07;3.40;;;16.00;99.90;;;;;;4935387;28;20050;-83
2022/09/10 07:43:28;;;;;;;4.88;3.17;;;16.00;99.90;;;;;;4935353;28;20035;-83
2022/09/10 07:45:53;;;;;;;3.75;3.30;;;16.10;99.90;;;;;;4946059;28;20027;-83
2022/09/10 07:48:19;;;;;;;5.40;3.67;;;16.10;99.90;;;;;;4936136;28;20442;-83
2022/09/10 07:50:44;;;;;;;7.40;4.72;;;16.20;99.90;;;;;;4934096;28;20487;-84
2022/09/10 07:53:10;;;;;;;9.73;4.97;;;16.10;99.90;;;;;;4951005;28;20110;-83
2022/09/10 07:55:36;;;;;;;7.55;2.70;;;16.10;99.90;;;;;;4947932;28;20088;-83
2022/09/10 07:58:02;;;;;;;7.35;2.72;;;16.10;99.90;;;;;;4935308;28;20035;-83
2022/09/10 08:00:33;;;;;;;5.88;4.75;;;16.10;99.90;;;;;;4949557;28;20152;-84
2022/09/10 08:02:59;;;;;;;5.15;3.65;;;16.20;99.90;;;;;;4928879;28;20023;-85
2022/09/10 08:05:26;;;;;;;7.00;3.60;;;16.30;99.90;;;;;;4947034;28;20027;-84
2022/09/10 08:07:53;;;;;;;8.57;3.70;;;16.20;99.90;;;;;;4948714;28;20027;-84
2022/09/10 08:10:19;;;;;;;3.10;2.80;;;16.30;99.90;;;;;;4947220;28;20080;-84
2022/09/10 08:12:44;;;;;;;4.30;2.95;;;16.20;99.90;;;;;;4933148;28;20644;-83
2022/09/10 08:15:10;;;;;;;3.75;2.95;;;16.30;99.90;;;;;;4963377;28;20601;-82
2022/09/10 08:17:37;;;;;;;7.10;3.10;;;16.20;99.90;;;;;;4939563;28;20038;-83
2022/09/10 08:20:06;;;;;;;4.95;3.63;;;16.20;99.90;;;;;;4935229;28;20513;-83
2022/09/10 08:22:32;;;;;;;3.40;2.40;;;16.20;99.90;;;;;;4934518;28;20166;-81
2022/09/10 08:24:58;;;;;;;8.88;3.67;;;16.20;99.90;;;;;;4961590;28;20027;-83
2022/09/10 08:27:23;;;;;;;9.57;5.05;;;16.20;99.90;;;;;;4947447;28;20045;-83
2022/09/10 08:29:49;;;;;;;6.75;2.95;;;16.30;99.90;;;;;;4936656;28;20479;-84
2022/09/10 08:32:15;;;;;;;8.63;3.85;;;16.30;99.90;;;;;;4947350;28;20161;-84
2022/09/10 08:34:40;;;;;;;6.53;3.60;;;16.30;99.90;;;;;;4949167;28;20114;-84
2022/09/10 08:37:06;;;;;;;6.32;5.00;;;16.30;99.90;;;;;;4948296;28;20038;-84
2022/09/10 08:39:32;;;;;;;10.15;5.10;;;16.30;99.90;;;;;;4936955;28;20073;-84
2022/09/10 08:42:00;;;;;;;6.88;3.55;;;16.30;99.90;;;;;;4958714;28;20057;-84
2022/09/10 08:44:30;;;;;;;5.95;3.35;;;16.30;99.90;;;;;;4930600;28;20038;-84
2022/09/10 08:47:19;;;;;;;7.05;4.57;;;16.30;99.90;;;;;;4961520;28;20042;-83
2022/09/10 08:49:48;;;;;;;9.27;3.88;;;16.30;99.90;;;;;;4980588;28;20509;-83
2022/09/10 08:52:28;;;;;;;8.57;3.75;;;16.40;99.90;;;;;;4957637;28;20743;-84
2022/09/10 08:55:15;;;;;;;9.80;5.80;;;16.50;99.90;;;;;;4967155;28;20031;-84
2022/09/10 08:57:43;;;;;;;;;;;16.50;99.90;;;;;;4981742;28;20573;-84
2022/09/10 09:00:11;;;;;;;6.97;5.32;;;16.60;99.90;;;;;;4951048;28;20452;-84
2022/09/10 09:02:55;;;;;;;7.43;5.18;;;16.70;99.90;;;;;;4964415;28;20034;-84
2022/09/10 09:05:22;;;;;;;10.77;5.10;;;16.80;99.90;;;;;;4949433;28;20031;-84
2022/09/10 09:07:48;;;;;;;6.35;4.20;;;16.80;99.90;;;;;;4933236;28;20568;-84
2022/09/10 09:10:30;;;;;;;6.43;4.72;;;16.80;99.90;;;;;;4959677;28;20077;-84
2022/09/10 09:13:18;;;;;;;8.45;3.80;;;16.90;99.90;;;;;;4953077;28;20129;-84
2022/09/10 09:16:13;;;;;;;10.70;5.72;;;17.00;99.90;;;;;;4966824;28;20549;-84
2022/09/10 09:18:50;;;;;;;7.82;4.15;;;17.10;99.90;;;;;;4934914;28;20032;-84
2022/09/10 09:21:17;;;;;;;7.05;4.35;;;17.20;99.90;;;;;;4965670;28;20030;-84
2022/09/10 09:23:53;;;;;;;11.10;4.43;;;17.40;99.90;;;;;;4939069;28;20057;-84
2022/09/10 09:26:19;;;;;;;6.68;4.75;;;17.50;99.90;;;;;;4946286;28;20081;-84
2022/09/10 09:28:59;;;;;;;8.90;4.78;;;17.80;99.90;;;;;;4951859;28;20034;-84
2022/09/10 09:31:27;;;;;;;12.48;4.57;;;17.90;99.90;;;;;;4979826;28;20030;-84
2022/09/10 09:33:55;;;;;;;6.88;5.35;;;18.20;99.90;;;;;;4951766;28;20023;-84
2022/09/10 09:36:26;;;;;;;8.05;4.60;;;18.30;99.90;;;;;;4940425;28;20030;-84
2022/09/10 09:38:51;;;;;;;7.25;6.15;;;18.50;99.90;;;;;;4953209;28;20030;-83
2022/09/10 09:41:34;;;;;;;6.78;4.85;;;18.60;99.90;;;;;;4947692;28;20034;-83
2022/09/10 09:44:14;;;;;;;8.40;5.30;;;18.60;99.90;;;;;;4938043;28;20487;-81
2022/09/10 09:46:41;;;;;;;7.97;5.97;;;18.30;99.90;;;;;;4967036;28;20487;-83
2022/09/10 09:49:09;;;;;;;7.30;3.95;;;18.30;99.90;;;;;;4938072;28;20422;-83
2022/09/10 09:51:35;;;;;;;7.13;3.85;;;18.10;99.90;;;;;;4929404;28;20046;-81
2022/09/10 09:54:11;;;;;;;5.32;4.38;;;18.00;99.90;;;;;;4924009;28;20053;-82
2022/09/10 09:56:39;;;;;;;6.00;4.20;;;17.70;99.90;;;;;;4957562;28;20113;-81
2022/09/10 09:59:11;;;;;;;8.82;4.53;;;17.70;99.90;;;;;;4958713;28;20049;-82
2022/09/10 10:01:38;;;;;;;8.10;3.90;;;17.40;99.90;;;;;;4953403;28;20394;-84
2022/09/10 10:04:13;;;;;;;7.63;4.35;;;17.10;99.90;;;;;;4932683;28;20038;-84
2022/09/10 10:06:46;;;;;;;6.30;4.03;;;17.00;99.90;;;;;;4937523;28;20026;-84
2022/09/10 10:09:19;;;;;;;6.05;3.13;;;16.80;99.90;;;;;;4925955;28;20034;-85
2022/09/10 10:11:52;;;;;;;4.22;3.83;;;16.80;99.90;;;;;;4934218;28;20046;-84
2022/09/10 10:14:18;;;;;;;4.10;3.35;;;16.80;99.90;;;;;;4946896;28;20062;-84
2022/09/10 10:16:47;;;;;;;7.15;3.50;;;16.60;99.90;;;;;;4969238;28;20043;-84
2022/09/10 10:19:30;;;;;;;3.40;3.10;;;16.60;99.90;;;;;;4935524;28;20135;-83
2022/09/10 10:21:58;;;;;;;6.43;2.90;;;16.50;99.90;;;;;;4941668;28;20442;-83
2022/09/10 10:24:33;;;;;;;6.00;3.40;;;16.50;99.90;;;;;;4948824;28;20038;-83
2022/09/10 10:26:59;;;;;;;5.70;3.50;;;16.50;99.90;;;;;;4949450;28;20498;-84
2022/09/10 10:29:24;;;;;;;12.85;7.47;;;16.40;99.90;;;;;;4949750;28;20030;-84
2022/09/10 10:31:50;;;;;;;9.05;5.78;;;16.40;99.90;;;;;;4937586;28;20083;-85
2022/09/10 10:35:07;;;;;;;6.55;4.05;;;16.40;99.90;;;;;;4962087;28;20023;-84
2022/09/10 10:37:46;;;;;;;6.70;4.95;;;16.40;99.90;;;;;;4930532;28;20099;-84
2022/09/10 10:40:55;;;;;;;5.75;3.40;;;16.30;99.90;;;;;;4944975;28;20053;-85
2022/09/10 10:43:41;;;;;;;4.75;3.42;;;16.30;99.90;;;;;;4920956;28;20042;-85
2022/09/10 10:46:28;;;;;;;4.18;3.42;;;16.30;99.90;;;;;;4964338;28;20030;-84
2022/09/10 10:49:24;;;;;;;4.95;3.72;;;16.20;99.90;;;;;;4953788;28;20833;-83
2022/09/10 10:51:58;;;;;;;4.93;3.70;;;16.20;99.90;;;;;;4952831;28;20085;-85
2022/09/10 10:54:43;;;;;;;2.30;2.10;;;16.20;99.90;;;;;;4961721;28;20038;-85
2022/09/10 10:57:29;;;;;;;6.05;3.33;;;16.20;99.90;;;;;;4937406;28;20039;-85
2022/09/10 11:00:08;;;;;;;4.82;4.30;;;16.20;99.90;;;;;;4976861;28;20026;-84
2022/09/10 11:02:39;;;;;;;9.63;5.00;;;16.20;99.90;;;;;;4941760;28;20034;-84
2022/09/10 11:05:25;;;;;;;7.40;5.50;;;16.30;99.90;;;;;;4967583;28;20399;-84
2022/09/10 11:07:51;;;;;;;7.53;4.38;;;16.40;99.90;;;;;;4960908;28;20513;-84
2022/09/10 11:10:20;;;;;;;7.68;4.80;;;16.50;99.90;;;;;;4937380;28;20030;-84
2022/09/10 11:12:54;;;;;;;5.25;4.28;;;16.60;99.90;;;;;;4968125;28;20465;-85
2022/09/10 11:15:28;;;;;;;8.05;5.47;;;16.80;99.90;;;;;;4953062;28;20045;-85
2022/09/10 11:17:58;;;;;;;5.85;3.67;;;16.80;99.90;;;;;;4963438;28;20117;-84
2022/09/10 11:20:45;;;;;;;9.95;5.45;;;17.00;99.90;;;;;;4958837;28;20035;-85
2022/09/10 11:23:21;;;;;;;7.30;4.47;;;17.30;99.90;;;;;;4975836;28;20038;-86
2022/09/10 11:25:51;;;;;;;;;;;17.30;99.90;;;;;;4947793;28;20034;-83
2022/09/10 11:28:18;;;;;;;6.97;5.35;;;17.40;99.90;;;;;;4986114;28;19914;-85
2022/09/10 11:30:48;;;;;;;7.90;5.00;;;17.70;99.90;;;;;;4952000;28;20503;-85
2022/09/10 11:33:18;;;;;;;7.22;5.40;;;17.80;99.90;;;;;;4942634;28;20026;-85
2022/09/10 11:35:58;;;;;;;6.35;5.00;;;17.90;99.90;;;;;;4961366;28;20078;-85
2022/09/10 11:38:47;;;;;;;9.95;8.57;;;18.30;99.90;;;;;;4949077;28;20115;-85
2022/09/10 11:41:17;;;;;;;9.85;6.63;;;18.60;99.90;;;;;;4951774;28;20031;-85
2022/09/10 11:43:57;;;;;;;9.10;6.80;;;18.60;99.90;;;;;;4948870;28;20033;-86
2022/09/10 11:46:31;;;;;;;5.82;3.53;;;18.80;99.90;;;;;;4969338;28;20043;-86
2022/09/10 11:49:26;;;;;;;5.18;4.68;;;19.10;99.90;;;;;;4953524;28;20038;-86
2022/09/10 11:51:52;;;;;;;3.67;3.35;;;19.20;99.90;;;;;;4950741;28;20027;-85
2022/09/10 11:54:28;;;;;;;11.32;8.40;;;19.20;99.90;;;;;;4938949;28;20505;-84
2022/09/10 11:56:53;;;;;;;;;;;19.10;99.90;;;;;;4964512;28;20035;-84
2022/09/10 11:59:34;;;;;;;8.40;5.30;;;19.20;99.90;;;;;;4985050;28;19921;-82
2022/09/10 12:02:25;;;;;;;8.93;5.82;;;19.40;99.90;;;;;;4973876;28;20039;-83
2022/09/10 12:05:22;;;;;;;7.97;4.65;;;19.40;99.90;;;;;;4950438;28;20043;-82
2022/09/10 12:08:06;;;;;;;9.32;5.90;;;19.60;99.90;;;;;;4955729;28;20037;-83
2022/09/10 12:11:04;;;;;;;7.03;5.90;;;19.70;99.90;;;;;;4932328;28;20415;-83
2022/09/10 12:13:32;;;;;;;7.72;6.07;;;19.70;99.90;;;;;;4940472;28;20411;-84
2022/09/10 12:16:01;;;;;;;6.60;5.93;;;19.70;99.90;;;;;;4937620;28;20394;-81
2022/09/10 12:18:30;;;;;;;9.70;6.18;;;19.80;99.90;;;;;;4947926;28;20038;-82
2022/09/10 12:21:03;;;;;;;9.00;7.53;;;19.80;99.90;;;;;;4945957;28;20146;-83
2022/09/10 12:23:30;;;;;;;7.55;5.97;;;19.70;99.90;;;;;;4949113;28;20031;-82
2022/09/10 12:26:10;;;;;;;9.73;8.70;;;19.60;99.90;;;;;;4936316;28;20034;-82
2022/09/10 12:28:41;;;;;;;8.70;6.85;;;19.60;99.90;;;;;;4269171;28;10000106;-82
2022/09/10 12:31:10;;;;;;;10.90;9.07;;;19.40;99.90;;;;;;4977900;28;20509;-82
2022/09/10 12:33:42;;;;;;;8.68;7.72;;;19.30;99.90;;;;;;4935654;28;20305;-82
2022/09/10 12:36:09;;;;;;;10.23;8.95;;;19.10;99.90;;;;;;4968510;28;20038;-83
2022/09/10 12:38:53;;;;;;;8.35;7.07;;;18.80;99.90;;;;;;4933101;28;20244;-83
2022/09/10 12:41:21;;;;;;;18.95;10.32;;;18.80;99.90;;;;;;4981000;28;20582;-84
2022/09/10 12:43:47;;;;;;;9.73;8.10;;;18.60;99.90;;;;;;4968395;28;20165;-82
2022/09/10 12:46:13;;;;;;;12.57;8.27;;;18.40;99.90;;;;;;4969147;28;20061;-84
2022/09/10 12:48:40;;;;;;;12.95;9.80;;;18.30;99.90;;;;;;4986204;28;20086;-83
2022/09/10 12:51:18;;;;;;;9.55;6.22;;;18.30;99.90;;;;;;4950581;28;20147;-83
2022/09/10 12:53:47;;;;;;;12.35;7.97;;;18.40;99.90;;;;;;4959960;28;20141;-83
2022/09/10 12:56:38;;;;;;;14.63;9.15;;;18.20;99.90;;;;;;4954143;28;20502;-83
2022/09/10 12:59:16;;;;;;;14.52;8.85;;;18.20;99.90;;;;;;4976494;28;20039;-83
2022/09/10 13:01:42;;;;;;;14.18;10.80;;;18.40;99.90;;;;;;4979399;28;20443;-83